Terminal Aerodrome Forecast
Issued by NWS

Home | Current Version | Previous Version | Text Only | Print | Product List | Glossary On
Versions: 1 2 3 4 5 6 7 8 9 10 11 12 13
000
FTUS42 KGSP 042333
TAFGMU
TAF
KGMU 042333Z 0500/0524 05005KT P6SM VCTS SCT070CB
      TEMPO 0500/0502 VRB20G35KT 3SM TSRA BKN040CB
     FM050200 05004KT P6SM BKN060
     FM051000 03005KT P6SM BKN045
     FM051500 05009KT P6SM BKN045 PROB30 0515/0521 4SM TSRA BKN040CB
     FM052100 05007KT P6SM BKN060=

USA.gov is the U.S. government's official web portal to all federal, state and local government web resources and services.